SBI1010 UKBB-UKBB
Flight info
| Callsign | SBI1010 |
|---|---|
| Flight time | 0h 16m |
| Altitude | 8000 |
| Route | CY |
| Aircraft | A320/M-SDE3FGHIRWY/LB1 |
Departure
| Time | 2026-04-27 12:37 |
|---|---|
| Airport | Boryspil International Airport (UKBB) |
Arrival
| Time | 2026-04-27 12:53 |
|---|---|
| Airport | Boryspil International Airport (UKBB) |
| Time | Latitude | Longitude | Altitude | Speed | Heading |
|---|---|---|---|---|---|
| 2026-04-27 12:15 | 50.33549 | 30.89864 | 428 ft | 0 kts | 182° |
| 2026-04-27 12:31 | 50.33525 | 30.89856 | 418 ft | 10 kts | 192° |
| 2026-04-27 12:31 | 50.33499 | 30.89929 | 428 ft | 10 kts | 94° |
| 2026-04-27 12:32 | 50.33494 | 30.90046 | 424 ft | 12 kts | 96° |
| 2026-04-27 12:32 | 50.33411 | 30.90123 | 420 ft | 19 kts | 181° |
| 2026-04-27 12:32 | 50.33293 | 30.90116 | 423 ft | 15 kts | 182° |
| 2026-04-27 12:32 | 50.33188 | 30.90111 | 418 ft | 15 kts | 182° |
| 2026-04-27 12:33 | 50.33085 | 30.90105 | 420 ft | 15 kts | 182° |
| 2026-04-27 12:33 | 50.32985 | 30.90095 | 420 ft | 15 kts | 183° |
| 2026-04-27 12:33 | 50.32848 | 30.90085 | 428 ft | 24 kts | 183° |
| 2026-04-27 12:33 | 50.32669 | 30.90070 | 420 ft | 27 kts | 183° |
| 2026-04-27 12:34 | 50.32522 | 30.90068 | 422 ft | 19 kts | 169° |
| 2026-04-27 12:34 | 50.32494 | 30.90082 | 430 ft | 0 kts | 156° |
| 2026-04-27 12:34 | 50.32473 | 30.90100 | 428 ft | 10 kts | 146° |
| 2026-04-27 12:35 | 50.32446 | 30.90251 | 422 ft | 18 kts | 69° |
| 2026-04-27 12:35 | 50.32530 | 30.90367 | 435 ft | 16 kts | 26° |
| 2026-04-27 12:35 | 50.32595 | 30.90393 | 427 ft | 0 kts | 4° |
| 2026-04-27 12:36 | 50.32687 | 30.90401 | 428 ft | 53 kts | 1° |
| 2026-04-27 12:36 | 50.33453 | 30.90450 | 430 ft | 159 kts | 351° |
| 2026-04-27 12:37 | 50.34701 | 30.90636 | 887 ft | 182 kts | 2° |
| 2026-04-27 12:37 | 50.35851 | 30.91083 | 1172 ft | 163 kts | 8° |
| 2026-04-27 12:37 | 50.36948 | 30.91626 | 1802 ft | 166 kts | 8° |
| 2026-04-27 12:37 | 50.37989 | 30.92201 | 3096 ft | 153 kts | 8° |
| 2026-04-27 12:38 | 50.39005 | 30.92795 | 4018 ft | 164 kts | 8° |
| 2026-04-27 12:38 | 50.40159 | 30.93434 | 4691 ft | 187 kts | 8° |
| 2026-04-27 12:38 | 50.41458 | 30.94107 | 5363 ft | 211 kts | 9° |
| 2026-04-27 12:38 | 50.42983 | 30.94826 | 5899 ft | 246 kts | 9° |
| 2026-04-27 12:39 | 50.44673 | 30.95586 | 5994 ft | 261 kts | 13° |
| 2026-04-27 12:39 | 50.46241 | 30.97135 | 6007 ft | 277 kts | 40° |
| 2026-04-27 12:39 | 50.47236 | 30.99779 | 5998 ft | 289 kts | 69° |
| 2026-04-27 12:39 | 50.47387 | 31.02946 | 6002 ft | 296 kts | 98° |
| 2026-04-27 12:40 | 50.46637 | 31.05932 | 6001 ft | 296 kts | 127° |
| 2026-04-27 12:40 | 50.45149 | 31.08080 | 6003 ft | 289 kts | 155° |
| 2026-04-27 12:40 | 50.43304 | 31.08997 | 6008 ft | 280 kts | 178° |
| 2026-04-27 12:40 | 50.41369 | 31.09067 | 6007 ft | 276 kts | 188° |
| 2026-04-27 12:41 | 50.39459 | 31.08950 | 6004 ft | 275 kts | 188° |
| 2026-04-27 12:41 | 50.37548 | 31.08815 | 6006 ft | 275 kts | 188° |
| 2026-04-27 12:41 | 50.35634 | 31.08677 | 6011 ft | 275 kts | 189° |
| 2026-04-27 12:41 | 50.33716 | 31.08539 | 6008 ft | 276 kts | 189° |
| 2026-04-27 12:42 | 50.31801 | 31.08400 | 6008 ft | 276 kts | 189° |
| 2026-04-27 12:42 | 50.29879 | 31.08262 | 6008 ft | 276 kts | 188° |
| 2026-04-27 12:42 | 50.27957 | 31.08120 | 6010 ft | 276 kts | 188° |
| 2026-04-27 12:42 | 50.26043 | 31.07976 | 6014 ft | 275 kts | 188° |
| 2026-04-27 12:43 | 50.24131 | 31.07832 | 6013 ft | 275 kts | 188° |
| 2026-04-27 12:43 | 50.22210 | 31.07689 | 6013 ft | 276 kts | 188° |
| 2026-04-27 12:43 | 50.20320 | 31.07551 | 6008 ft | 276 kts | 189° |
| 2026-04-27 12:43 | 50.18402 | 31.07415 | 5847 ft | 274 kts | 188° |
| 2026-04-27 12:44 | 50.16506 | 31.07290 | 5320 ft | 273 kts | 189° |
| 2026-04-27 12:44 | 50.14608 | 31.07176 | 4819 ft | 273 kts | 189° |
| 2026-04-27 12:44 | 50.12703 | 31.07075 | 4338 ft | 273 kts | 189° |
| 2026-04-27 12:44 | 50.10847 | 31.06778 | 3862 ft | 261 kts | 205° |
| 2026-04-27 12:45 | 50.09369 | 31.05389 | 3393 ft | 240 kts | 234° |
| 2026-04-27 12:45 | 50.08644 | 31.03194 | 3038 ft | 222 kts | 264° |
| 2026-04-27 12:45 | 50.08432 | 31.00895 | 3025 ft | 206 kts | 268° |
| 2026-04-27 12:45 | 50.08276 | 30.98776 | 3018 ft | 189 kts | 269° |
| 2026-04-27 12:46 | 50.08251 | 30.96822 | 3010 ft | 172 kts | 288° |
| 2026-04-27 12:46 | 50.08928 | 30.95412 | 3022 ft | 168 kts | 325° |
| 2026-04-27 12:46 | 50.10028 | 30.94759 | 3024 ft | 168 kts | 337° |
| 2026-04-27 12:46 | 50.11141 | 30.94306 | 3051 ft | 165 kts | 339° |
| 2026-04-27 12:47 | 50.12253 | 30.93879 | 3023 ft | 165 kts | 339° |
| 2026-04-27 12:47 | 50.13372 | 30.93453 | 3022 ft | 165 kts | 339° |
| 2026-04-27 12:47 | 50.14490 | 30.93032 | 3024 ft | 166 kts | 339° |
| 2026-04-27 12:47 | 50.15612 | 30.92616 | 3020 ft | 164 kts | 338° |
| 2026-04-27 12:48 | 50.16550 | 30.91984 | 3016 ft | 133 kts | 324° |
| 2026-04-27 12:48 | 50.17283 | 30.91360 | 3021 ft | 109 kts | 323° |
| 2026-04-27 12:48 | 50.17918 | 30.90816 | 3022 ft | 100 kts | 322° |
| 2026-04-27 12:48 | 50.18516 | 30.90299 | 3015 ft | 97 kts | 322° |
| 2026-04-27 12:49 | 50.19090 | 30.89802 | 2905 ft | 94 kts | 322° |
| 2026-04-27 12:49 | 50.19761 | 30.89638 | 2694 ft | 110 kts | 358° |
| 2026-04-27 12:49 | 50.20485 | 30.89731 | 2636 ft | 97 kts | 334° |
| 2026-04-27 12:49 | 50.21189 | 30.89637 | 2591 ft | 108 kts | 355° |
| 2026-04-27 12:50 | 50.21922 | 30.89682 | 2533 ft | 105 kts | 345° |
| 2026-04-27 12:50 | 50.22662 | 30.89707 | 2423 ft | 108 kts | 347° |
| 2026-04-27 12:50 | 50.23406 | 30.89745 | 2296 ft | 109 kts | 348° |
| 2026-04-27 12:50 | 50.24162 | 30.89790 | 2153 ft | 109 kts | 348° |
| 2026-04-27 12:51 | 50.24918 | 30.89839 | 2012 ft | 109 kts | 349° |
| 2026-04-27 12:51 | 50.25675 | 30.89891 | 1865 ft | 109 kts | 349° |
| 2026-04-27 12:51 | 50.26437 | 30.89945 | 1711 ft | 109 kts | 349° |
| 2026-04-27 12:51 | 50.27197 | 30.89999 | 1550 ft | 109 kts | 350° |
| 2026-04-27 12:52 | 50.27957 | 30.90054 | 1407 ft | 109 kts | 350° |
| 2026-04-27 12:52 | 50.28711 | 30.90111 | 1250 ft | 110 kts | 351° |
| 2026-04-27 12:52 | 50.29479 | 30.90190 | 1023 ft | 110 kts | 354° |
| 2026-04-27 12:52 | 50.30241 | 30.90248 | 864 ft | 111 kts | 348° |
| 2026-04-27 12:53 | 50.31824 | 30.90348 | 582 ft | 112 kts | 352° |
| 2026-04-27 12:53 | 50.32577 | 30.90402 | 453 ft | 100 kts | 349° |
| 2026-04-27 12:53 | 50.33025 | 30.90413 | 424 ft | 40 kts | 3° |
| 2026-04-27 12:54 | 50.33275 | 30.90419 | 425 ft | 17 kts | 347° |
| 2026-04-27 12:54 | 50.33317 | 30.90300 | 429 ft | 14 kts | 275° |
| 2026-04-27 12:54 | 50.33319 | 30.90264 | 429 ft | 0 kts | 275° |
| 2026-04-27 12:55 | 50.33319 | 30.90261 | 429 ft | 2 kts | 275° |
| 2026-04-27 12:55 | 50.33324 | 30.90185 | 421 ft | 13 kts | 284° |
| 2026-04-27 12:56 | 50.33415 | 30.90125 | 423 ft | 14 kts | 2° |
| 2026-04-27 12:56 | 50.33494 | 30.90033 | 426 ft | 16 kts | 278° |
| 2026-04-27 12:56 | 50.33548 | 30.89996 | 424 ft | 10 kts | 6° |
| 2026-04-27 12:56 | 50.33558 | 30.89998 | 420 ft | 0 kts | 4° |